createdAt,value
2022-11-03T00:01:47.360Z,100.00
2022-11-03T00:04:16.635Z,100.00
2022-11-03T00:06:44.860Z,100.00
2022-11-03T00:09:13.618Z,100.00
2022-11-03T00:11:42.198Z,100.00
2022-11-03T00:14:10.112Z,100.00
2022-11-03T00:16:37.992Z,100.00
2022-11-03T00:19:05.162Z,100.00
2022-11-03T00:21:32.166Z,100.00
2022-11-03T00:23:58.854Z,100.00
2022-11-03T00:26:27.579Z,100.00
2022-11-03T00:28:56.743Z,100.00
2022-11-03T00:31:34.795Z,100.00
2022-11-03T00:34:02.350Z,100.00
2022-11-03T00:36:31.457Z,100.00
2022-11-03T00:38:58.734Z,100.00
2022-11-03T00:41:26.669Z,100.00
2022-11-03T00:43:53.700Z,100.00
2022-11-03T00:46:21.972Z,100.00
2022-11-03T00:48:49.097Z,100.00
2022-11-03T00:51:20.022Z,100.00
2022-11-03T00:53:54.872Z,100.00
2022-11-03T00:56:26.450Z,100.00
2022-11-03T00:58:54.438Z,100.00
2022-11-03T01:01:26.348Z,100.00
2022-11-03T01:04:14.489Z,100.00
2022-11-03T01:06:53.500Z,100.00
2022-11-03T01:09:28.862Z,100.00
2022-11-03T01:12:03.400Z,100.00
2022-11-03T01:14:42.211Z,100.00
2022-11-03T01:17:12.186Z,100.00
2022-11-03T01:19:38.993Z,100.00
2022-11-03T01:22:09.581Z,100.00
2022-11-03T01:24:38.418Z,100.00
2022-11-03T01:27:05.039Z,100.00
2022-11-03T01:29:31.598Z,100.00
2022-11-03T01:31:58.625Z,100.00
2022-11-03T01:34:25.268Z,100.00
2022-11-03T01:36:51.993Z,100.00
2022-11-03T01:39:20.044Z,100.00
2022-11-03T01:41:48.934Z,100.00
2022-11-03T01:44:15.382Z,100.00
2022-11-03T01:46:47.625Z,100.00
2022-11-03T01:49:25.535Z,100.00
2022-11-03T01:51:57.670Z,100.00
2022-11-03T01:54:26.294Z,100.00
2022-11-03T01:56:54.300Z,100.00
2022-11-03T01:59:24.208Z,100.00
2022-11-03T02:01:51.158Z,100.00
2022-11-03T02:04:24.509Z,100.00
2022-11-03T02:07:22.635Z,100.00
2022-11-03T02:09:49.633Z,100.00
2022-11-03T02:12:17.221Z,100.00
2022-11-03T02:14:56.537Z,100.00
2022-11-03T02:17:26.052Z,100.00
2022-11-03T02:20:27.111Z,100.00
2022-11-03T02:23:27.377Z,100.00
2022-11-03T02:25:59.162Z,100.00
2022-11-03T02:28:28.543Z,100.00
2022-11-03T02:31:04.112Z,100.00
2022-11-03T02:33:41.564Z,100.00
2022-11-03T02:36:20.774Z,100.00
2022-11-03T02:38:57.404Z,100.00
2022-11-03T02:41:26.206Z,100.00
2022-11-03T02:43:56.102Z,100.00
2022-11-03T02:46:24.577Z,100.00
2022-11-03T02:48:51.183Z,100.00
2022-11-03T02:51:17.816Z,100.00
2022-11-03T02:54:08.001Z,100.00
2022-11-03T02:56:42.724Z,100.00
2022-11-03T02:59:14.976Z,100.00
2022-11-03T03:01:49.127Z,100.00
2022-11-03T03:04:38.634Z,100.00
2022-11-03T03:07:16.789Z,100.00
2022-11-03T03:09:51.913Z,100.00
2022-11-03T03:12:21.574Z,100.00
2022-11-03T03:14:51.929Z,100.00
2022-11-03T03:17:18.675Z,100.00
2022-11-03T03:20:07.154Z,100.00
2022-11-03T03:22:38.750Z,100.00
2022-11-03T03:25:17.749Z,100.00
2022-11-03T03:27:50.035Z,100.00
2022-11-03T03:30:18.673Z,100.00
2022-11-03T03:32:48.965Z,100.00
2022-11-03T03:35:20.480Z,100.00
2022-11-03T03:37:50.639Z,100.00
2022-11-03T03:40:24.847Z,100.00
2022-11-03T03:42:52.853Z,100.00
2022-11-03T03:45:20.429Z,100.00
2022-11-03T03:47:47.573Z,100.00
2022-11-03T03:50:14.222Z,100.00
2022-11-03T03:52:40.936Z,100.00
2022-11-03T03:55:21.473Z,100.00
2022-11-03T03:57:48.213Z,100.00
2022-11-03T04:00:16.106Z,100.00
2022-11-03T04:02:43.009Z,100.00
2022-11-03T04:05:09.627Z,100.00
2022-11-03T04:07:48.305Z,100.00
2022-11-03T04:10:16.865Z,100.00
2022-11-03T04:13:03.433Z,100.00
2022-11-03T04:15:49.936Z,100.00
2022-11-03T04:18:36.149Z,100.00
2022-11-03T04:21:21.689Z,100.00
2022-11-03T04:23:48.346Z,100.00
2022-11-03T04:26:17.120Z,100.00
2022-11-03T04:28:43.925Z,100.00
2022-11-03T04:31:14.435Z,100.00
2022-11-03T04:33:42.164Z,100.00
2022-11-03T04:36:20.816Z,100.00
2022-11-03T04:38:48.669Z,100.00
2022-11-03T04:41:23.068Z,100.00
2022-11-03T04:43:51.413Z,100.00
2022-11-03T04:46:24.804Z,100.00
2022-11-03T04:48:53.474Z,100.00
2022-11-03T04:51:26.693Z,100.00
2022-11-03T04:53:55.849Z,100.00
2022-11-03T04:56:24.974Z,100.00
2022-11-03T04:58:52.786Z,100.00
2022-11-03T05:01:24.212Z,100.00
2022-11-03T05:03:56.762Z,100.00
2022-11-03T05:06:27.476Z,100.00
2022-11-03T05:09:10.694Z,100.00
2022-11-03T05:11:42.851Z,100.00
2022-11-03T05:14:21.424Z,100.00
2022-11-03T05:16:50.197Z,100.00
2022-11-03T05:19:28.733Z,100.00
2022-11-03T05:21:58.068Z,100.00
2022-11-03T05:24:27.775Z,100.00
2022-11-03T05:26:57.858Z,100.00
2022-11-03T05:29:26.556Z,100.00
2022-11-03T05:31:56.214Z,100.00
2022-11-03T05:34:42.347Z,100.00
2022-11-03T05:37:28.300Z,100.00
2022-11-03T05:40:13.532Z,100.00
2022-11-03T05:42:42.828Z,100.00
2022-11-03T05:45:20.091Z,100.00
2022-11-03T05:47:47.853Z,100.00
2022-11-03T05:50:25.258Z,100.00
2022-11-03T05:52:58.769Z,100.00
2022-11-03T05:55:31.671Z,100.00
2022-11-03T05:58:01.160Z,100.00
2022-11-03T06:00:37.520Z,100.00
2022-11-03T06:03:05.451Z,100.00
2022-11-03T06:05:36.014Z,100.00
2022-11-03T06:08:12.980Z,100.00
2022-11-03T06:10:45.014Z,100.00
2022-11-03T06:13:16.422Z,100.00
2022-11-03T06:15:46.120Z,100.00
2022-11-03T06:18:25.299Z,100.00
2022-11-03T06:20:57.939Z,100.00
2022-11-03T06:23:25.232Z,100.00
2022-11-03T06:25:53.930Z,100.00
2022-11-03T06:28:25.327Z,100.00
2022-11-03T06:30:52.414Z,100.00
2022-11-03T06:33:27.893Z,100.00
2022-11-03T06:36:00.398Z,100.00
2022-11-03T06:38:30.222Z,100.00
2022-11-03T06:40:58.321Z,100.00
2022-11-03T06:43:41.797Z,100.00
2022-11-03T06:46:20.428Z,100.00
2022-11-03T06:48:47.149Z,100.00
2022-11-03T06:51:25.921Z,100.00
2022-11-03T06:53:54.559Z,100.00
2022-11-03T06:56:31.610Z,100.00
2022-11-03T06:58:58.448Z,100.00
2022-11-03T07:01:30.429Z,100.00
2022-11-03T07:04:01.576Z,100.00
2022-11-03T07:06:37.769Z,100.00
2022-11-03T07:09:07.510Z,100.00
2022-11-03T07:11:57.577Z,100.00
2022-11-03T07:14:33.718Z,100.00
2022-11-03T07:17:05.755Z,100.00
2022-11-03T07:19:37.678Z,100.00
2022-11-03T07:22:10.961Z,100.00
2022-11-03T07:24:41.213Z,100.00
2022-11-03T07:27:10.920Z,100.00
2022-11-03T07:29:37.439Z,100.00
2022-11-03T07:32:12.862Z,100.00
2022-11-03T07:34:39.434Z,100.00
2022-11-03T07:37:09.338Z,100.00
2022-11-03T07:39:37.533Z,100.00
2022-11-03T07:42:18.336Z,100.00
2022-11-03T07:44:45.408Z,100.00
2022-11-03T07:47:19.458Z,100.00
2022-11-03T07:49:46.209Z,100.00
2022-11-03T07:52:19.209Z,100.00
2022-11-03T07:54:45.994Z,100.00
2022-11-03T07:57:24.767Z,100.00
2022-11-03T07:59:56.647Z,100.00
2022-11-03T08:02:36.813Z,100.00
2022-11-03T08:05:04.714Z,100.00
2022-11-03T08:07:31.703Z,100.00
2022-11-03T08:09:58.780Z,100.00
2022-11-03T08:12:25.350Z,100.00
2022-11-03T08:14:51.885Z,100.00
2022-11-03T08:17:18.524Z,100.00
2022-11-03T08:19:45.045Z,100.00
2022-11-03T08:22:11.581Z,100.00
2022-11-03T08:24:38.185Z,100.00
2022-11-03T08:27:05.132Z,100.00
2022-11-03T08:29:31.799Z,100.00
2022-11-03T08:31:58.386Z,100.00
2022-11-03T08:34:24.916Z,100.00
2022-11-03T08:36:51.489Z,100.00
2022-11-03T08:39:18.085Z,100.00
2022-11-03T08:41:44.683Z,100.00
2022-11-03T08:44:11.190Z,100.00
2022-11-03T08:46:37.857Z,100.00
2022-11-03T08:49:04.503Z,100.00
2022-11-03T08:51:31.101Z,100.00
2022-11-03T08:53:57.738Z,100.00
2022-11-03T08:56:24.396Z,100.00
2022-11-03T08:58:51.320Z,100.00
2022-11-03T09:01:17.988Z,100.00
2022-11-03T09:03:44.753Z,100.00
2022-11-03T09:06:11.486Z,100.00
2022-11-03T09:11:25.004Z,100.00
2022-11-03T09:13:51.647Z,100.00
2022-11-03T09:16:18.278Z,100.00
2022-11-03T09:18:45.583Z,100.00
2022-11-03T09:21:13.482Z,100.00
2022-11-03T09:23:40.214Z,100.00
2022-11-03T09:26:06.858Z,100.00
2022-11-03T09:28:33.540Z,100.00
2022-11-03T09:31:00.069Z,100.00
2022-11-03T09:33:26.875Z,100.00
2022-11-03T09:35:53.708Z,100.00
2022-11-03T09:38:20.607Z,100.00
2022-11-03T09:43:14.985Z,100.00
2022-11-03T09:45:41.546Z,100.00
2022-11-03T09:48:12.556Z,100.00
2022-11-03T09:50:39.833Z,100.00
2022-11-03T09:53:06.813Z,100.00
2022-11-03T09:55:33.835Z,100.00
2022-11-03T09:58:12.919Z,100.00
2022-11-03T10:00:39.619Z,100.00
2022-11-03T10:03:06.643Z,100.00
2022-11-03T10:05:33.946Z,100.00
2022-11-03T10:08:07.264Z,100.00
2022-11-03T10:10:35.677Z,100.00
2022-11-03T10:13:02.337Z,100.00
2022-11-03T10:15:29.109Z,100.00
2022-11-03T10:17:56.474Z,100.00
2022-11-03T10:20:23.726Z,100.00
2022-11-03T10:22:54.745Z,100.00
2022-11-03T10:25:30.312Z,100.00
2022-11-03T10:28:23.398Z,100.00
2022-11-03T10:31:12.658Z,100.00
2022-11-03T10:33:50.329Z,100.00
2022-11-03T10:36:24.236Z,100.00
2022-11-03T10:38:50.927Z,100.00
2022-11-03T10:41:20.433Z,100.00
2022-11-03T10:44:04.465Z,100.00
2022-11-03T10:49:20.220Z,100.00
2022-11-03T10:51:49.401Z,100.00
2022-11-03T10:54:18.870Z,100.00
2022-11-03T10:56:46.670Z,100.00
2022-11-03T10:59:17.833Z,100.00
2022-11-03T11:01:44.900Z,100.00
2022-11-03T11:04:19.899Z,100.00
2022-11-03T11:06:46.895Z,99.85
2022-11-03T11:09:22.512Z,98.99
2022-11-03T11:12:01.362Z,96.68
2022-11-03T11:14:30.540Z,97.57
2022-11-03T11:17:01.421Z,95.26
2022-11-03T11:19:29.842Z,95.02
2022-11-03T11:21:56.506Z,95.77
2022-11-03T11:24:44.579Z,93.38
2022-11-03T11:27:46.564Z,94.29
2022-11-03T11:30:18.799Z,90.58
2022-11-03T11:32:45.297Z,91.09
2022-11-03T11:35:25.040Z,91.83
2022-11-03T11:37:52.415Z,91.51
2022-11-03T11:40:24.923Z,91.03
2022-11-03T11:43:04.426Z,91.93
2022-11-03T11:46:08.875Z,90.36
2022-11-03T11:48:36.036Z,92.70
2022-11-03T11:51:04.116Z,91.18
2022-11-03T11:53:42.041Z,91.23
2022-11-03T11:56:12.812Z,89.25
2022-11-03T11:58:50.235Z,92.13
2022-11-03T12:01:31.224Z,88.87
2022-11-03T12:04:01.306Z,90.68
2022-11-03T12:06:38.752Z,88.64
2022-11-03T12:09:23.621Z,89.94
2022-11-03T12:12:00.754Z,89.71
2022-11-03T12:14:31.712Z,90.22
2022-11-03T12:17:19.334Z,88.51
2022-11-03T12:19:51.337Z,88.97
2022-11-03T12:22:23.882Z,90.38
2022-11-03T12:24:56.004Z,89.90
2022-11-03T12:27:25.400Z,87.70
2022-11-03T12:29:55.907Z,86.58
2022-11-03T12:32:33.415Z,85.80
2022-11-03T12:35:02.809Z,87.25
2022-11-03T12:37:29.496Z,87.98
2022-11-03T12:39:56.111Z,87.41
2022-11-03T12:42:25.000Z,88.75
2022-11-03T12:44:52.095Z,86.59
2022-11-03T12:47:19.613Z,87.35
2022-11-03T12:49:46.206Z,85.39
2022-11-03T12:52:12.734Z,86.00
2022-11-03T12:54:39.763Z,84.98
2022-11-03T12:57:06.365Z,86.82
2022-11-03T12:59:33.285Z,85.06
2022-11-03T13:02:00.089Z,86.20
2022-11-03T13:04:26.868Z,86.34
2022-11-03T13:06:53.425Z,87.19
2022-11-03T13:09:20.016Z,87.65
2022-11-03T13:12:05.113Z,88.35
2022-11-03T13:14:31.689Z,89.93
2022-11-03T13:16:58.588Z,90.04
2022-11-03T13:19:25.226Z,91.29
2022-11-03T13:21:51.858Z,91.02
2022-11-03T13:24:18.462Z,90.76
2022-11-03T13:26:45.087Z,92.40
2022-11-03T13:29:11.668Z,94.32
2022-11-03T13:31:38.257Z,95.72
2022-11-03T13:34:04.836Z,96.63
2022-11-03T13:36:31.489Z,97.30
2022-11-03T13:38:58.086Z,97.54
2022-11-03T13:41:25.008Z,100.00
2022-11-03T13:43:51.577Z,100.00
2022-11-03T13:46:18.134Z,100.00
2022-11-03T13:51:31.271Z,100.00
2022-11-03T13:59:31.092Z,100.00
2022-11-03T14:04:44.918Z,100.00
2022-11-03T14:07:11.731Z,100.00
2022-11-03T14:09:38.466Z,100.00
2022-11-03T14:12:24.070Z,100.00
2022-11-03T14:14:50.635Z,100.00
2022-11-03T14:17:17.306Z,100.00
2022-11-03T14:19:48.726Z,100.00
2022-11-03T14:22:18.618Z,100.00
2022-11-03T14:24:45.203Z,100.00
2022-11-03T14:27:12.839Z,100.00
2022-11-03T14:29:39.457Z,100.00
2022-11-03T14:32:06.373Z,100.00
2022-11-03T14:34:33.375Z,100.00
2022-11-03T14:37:00.093Z,100.00
2022-11-03T14:39:26.915Z,100.00
2022-11-03T14:42:05.513Z,100.00
2022-11-03T14:44:38.357Z,100.00
2022-11-03T14:47:07.904Z,100.00
2022-11-03T14:49:35.685Z,100.00
2022-11-03T14:52:03.571Z,100.00
2022-11-03T14:54:31.179Z,100.00
2022-11-03T14:56:58.017Z,100.00
2022-11-03T14:59:25.383Z,100.00
2022-11-03T15:01:52.791Z,100.00
2022-11-03T15:04:20.271Z,100.00
2022-11-03T15:06:47.396Z,100.00
2022-11-03T15:09:14.944Z,100.00
2022-11-03T15:11:45.504Z,100.00
2022-11-03T15:14:12.621Z,100.00
2022-11-03T15:16:39.702Z,100.00
2022-11-03T15:19:07.275Z,100.00
2022-11-03T15:21:34.176Z,100.00
2022-11-03T15:26:47.745Z,100.00
2022-11-03T15:29:14.507Z,100.00
2022-11-03T15:31:47.238Z,100.00
2022-11-03T15:34:15.292Z,100.00
2022-11-03T15:36:41.988Z,100.00
2022-11-03T15:39:08.539Z,100.00
2022-11-03T15:41:35.389Z,100.00
2022-11-03T15:44:01.995Z,100.00
2022-11-03T15:46:29.963Z,100.00
2022-11-03T15:48:57.732Z,100.00
2022-11-03T15:51:24.694Z,100.00
2022-11-03T15:53:56.672Z,100.00
2022-11-03T15:56:25.771Z,100.00
2022-11-03T15:58:52.331Z,100.00
2022-11-03T16:01:19.071Z,100.00
2022-11-03T16:03:45.762Z,100.00
2022-11-03T16:06:13.010Z,100.00
2022-11-03T16:08:39.627Z,100.00
2022-11-03T16:11:06.220Z,100.00
2022-11-03T16:13:32.841Z,100.00
2022-11-03T16:15:59.506Z,100.00
2022-11-03T16:18:26.287Z,100.00
2022-11-03T16:20:52.857Z,100.00
2022-11-03T16:23:19.434Z,100.00
2022-11-03T16:25:46.037Z,100.00
2022-11-03T16:28:12.585Z,100.00
2022-11-03T16:30:39.182Z,100.00
2022-11-03T16:33:06.013Z,100.00
2022-11-03T16:35:32.695Z,100.00
2022-11-03T16:37:59.276Z,100.00
2022-11-03T16:40:25.918Z,100.00
2022-11-03T16:42:52.554Z,100.00
2022-11-03T16:45:21.130Z,100.00
2022-11-03T16:47:49.662Z,100.00
2022-11-03T16:50:16.879Z,100.00
2022-11-03T16:52:44.748Z,100.00
2022-11-03T16:55:12.052Z,100.00
2022-11-03T16:57:39.433Z,100.00
2022-11-03T17:00:08.932Z,100.00
2022-11-03T17:02:35.670Z,100.00
2022-11-03T17:05:02.295Z,100.00
2022-11-03T17:07:28.874Z,100.00
2022-11-03T17:09:55.557Z,100.00
2022-11-03T17:12:22.289Z,100.00
2022-11-03T17:14:51.340Z,100.00
2022-11-03T17:17:20.719Z,100.00
2022-11-03T17:19:47.475Z,100.00
2022-11-03T17:22:14.441Z,100.00
2022-11-03T17:24:41.227Z,100.00
2022-11-03T17:27:20.275Z,100.00
2022-11-03T17:29:54.673Z,100.00
2022-11-03T17:32:28.945Z,100.00
2022-11-03T17:34:56.531Z,100.00
2022-11-03T17:37:24.100Z,100.00
2022-11-03T17:39:51.083Z,100.00
2022-11-03T17:42:22.024Z,100.00
2022-11-03T17:44:50.287Z,100.00
2022-11-03T17:47:18.172Z,100.00
2022-11-03T17:49:45.877Z,100.00
2022-11-03T17:52:28.226Z,100.00
2022-11-03T17:54:58.672Z,100.00
2022-11-03T17:57:26.296Z,100.00
2022-11-03T17:59:55.366Z,100.00
2022-11-03T18:02:28.811Z,100.00
2022-11-03T18:05:03.269Z,100.00
2022-11-03T18:07:29.930Z,100.00
2022-11-03T18:09:56.489Z,100.00
2022-11-03T18:12:47.765Z,100.00
2022-11-03T18:15:16.370Z,100.00
2022-11-03T18:17:43.278Z,100.00
2022-11-03T18:20:23.102Z,100.00
2022-11-03T18:22:49.882Z,100.00
2022-11-03T18:25:18.626Z,100.00
2022-11-03T18:27:45.658Z,100.00
2022-11-03T18:30:14.015Z,100.00
2022-11-03T18:32:41.342Z,100.00
2022-11-03T18:35:20.233Z,100.00
2022-11-03T18:37:47.270Z,100.00
2022-11-03T18:40:14.927Z,100.00
2022-11-03T18:42:41.770Z,100.00
2022-11-03T18:45:13.365Z,100.00
2022-11-03T18:47:40.343Z,100.00
2022-11-03T18:50:08.293Z,100.00
2022-11-03T18:52:42.056Z,100.00
2022-11-03T18:55:11.543Z,100.00
2022-11-03T18:57:39.089Z,100.00
2022-11-03T19:00:15.687Z,100.00
2022-11-03T19:02:42.333Z,100.00
2022-11-03T19:05:13.730Z,100.00
2022-11-03T19:07:42.594Z,100.00
2022-11-03T19:10:21.270Z,100.00
2022-11-03T19:12:48.448Z,100.00
2022-11-03T19:15:24.944Z,100.00
2022-11-03T19:17:56.241Z,100.00
2022-11-03T19:20:23.625Z,100.00
2022-11-03T19:22:50.185Z,100.00
2022-11-03T19:25:18.665Z,100.00
2022-11-03T19:27:48.033Z,100.00
2022-11-03T19:30:19.811Z,100.00
2022-11-03T19:32:53.709Z,100.00
2022-11-03T19:35:34.891Z,100.00
2022-11-03T19:38:03.247Z,100.00
2022-11-03T19:40:30.197Z,100.00
2022-11-03T19:42:57.678Z,100.00
2022-11-03T19:45:24.699Z,100.00
2022-11-03T19:48:23.175Z,100.00
2022-11-03T19:50:40.445Z,100.00
2022-11-03T19:53:07.477Z,100.00
2022-11-03T19:55:41.089Z,100.00
2022-11-03T19:58:12.989Z,100.00
2022-11-03T20:00:39.656Z,100.00
2022-11-03T20:03:06.413Z,100.00
2022-11-03T20:05:33.121Z,100.00
2022-11-03T20:08:06.205Z,100.00
2022-11-03T20:10:36.042Z,100.00
2022-11-03T20:13:03.162Z,100.00
2022-11-03T20:15:29.888Z,100.00
2022-11-03T20:17:56.573Z,100.00
2022-11-03T20:20:28.097Z,100.00
2022-11-03T20:22:59.991Z,100.00
2022-11-03T20:25:35.474Z,100.00
2022-11-03T20:28:15.667Z,100.00
2022-11-03T20:30:42.334Z,100.00
2022-11-03T20:33:13.862Z,100.00
2022-11-03T20:35:40.631Z,100.00
2022-11-03T20:38:11.915Z,100.00
2022-11-03T20:40:39.344Z,100.00
2022-11-03T20:43:06.488Z,100.00
2022-11-03T20:45:33.178Z,100.00
2022-11-03T20:47:59.739Z,100.00
2022-11-03T20:50:26.549Z,100.00
2022-11-03T20:52:54.263Z,100.00
2022-11-03T20:55:23.338Z,100.00
2022-11-03T20:57:52.784Z,100.00
2022-11-03T21:00:26.993Z,100.00
2022-11-03T21:02:55.504Z,100.00
2022-11-03T21:05:23.296Z,100.00
2022-11-03T21:07:50.845Z,100.00
2022-11-03T21:10:20.944Z,100.00
2022-11-03T21:12:48.099Z,100.00
2022-11-03T21:15:39.847Z,100.00
2022-11-03T21:18:34.528Z,100.00
2022-11-03T21:21:01.964Z,100.00
2022-11-03T21:23:31.936Z,100.00
2022-11-03T21:25:58.468Z,100.00
2022-11-03T21:28:25.082Z,100.00
2022-11-03T21:30:53.718Z,100.00
2022-11-03T21:33:21.012Z,100.00
2022-11-03T21:35:49.027Z,100.00
2022-11-03T21:38:17.343Z,100.00
2022-11-03T21:40:52.349Z,100.00
2022-11-03T21:43:40.444Z,100.00
2022-11-03T21:46:09.839Z,100.00
2022-11-03T21:48:56.560Z,100.00
2022-11-03T21:51:24.081Z,100.00
2022-11-03T21:53:51.332Z,100.00
2022-11-03T21:56:17.904Z,100.00
2022-11-03T21:58:44.927Z,100.00
2022-11-03T22:01:11.616Z,100.00
2022-11-03T22:03:39.510Z,100.00
2022-11-03T22:06:08.932Z,100.00
2022-11-03T22:08:36.571Z,100.00
2022-11-03T22:11:23.392Z,100.00
2022-11-03T22:13:55.549Z,100.00
2022-11-03T22:16:41.380Z,100.00
2022-11-03T22:19:37.693Z,100.00
2022-11-03T22:22:27.703Z,100.00
2022-11-03T22:25:12.554Z,100.00
2022-11-03T22:27:39.159Z,100.00
2022-11-03T22:30:25.013Z,100.00
2022-11-03T22:32:54.158Z,100.00
2022-11-03T22:35:40.787Z,100.00
2022-11-03T22:38:09.222Z,100.00
2022-11-03T22:40:55.708Z,100.00
2022-11-03T22:43:41.870Z,100.00
2022-11-03T22:46:09.915Z,100.00
2022-11-03T22:48:36.631Z,100.00
2022-11-03T22:51:15.523Z,100.00
2022-11-03T22:54:01.820Z,100.00
2022-11-03T22:56:29.734Z,100.00
2022-11-03T22:58:56.573Z,100.00
2022-11-03T23:01:26.585Z,100.00
2022-11-03T23:03:53.933Z,100.00
2022-11-03T23:06:34.329Z,100.00
2022-11-03T23:09:01.478Z,100.00
2022-11-03T23:11:32.523Z,100.00
2022-11-03T23:14:10.068Z,100.00
2022-11-03T23:16:42.364Z,100.00
2022-11-03T23:19:33.116Z,100.00
2022-11-03T23:22:00.270Z,100.00
2022-11-03T23:24:45.842Z,100.00
2022-11-03T23:27:13.731Z,100.00
2022-11-03T23:29:40.422Z,100.00
2022-11-03T23:32:07.070Z,100.00
2022-11-03T23:34:35.156Z,100.00
2022-11-03T23:37:02.130Z,100.00
2022-11-03T23:39:28.719Z,100.00
2022-11-03T23:41:55.303Z,100.00
2022-11-03T23:44:22.011Z,100.00
2022-11-03T23:47:07.276Z,100.00
2022-11-03T23:49:33.810Z,100.00
2022-11-03T23:52:00.382Z,100.00
2022-11-03T23:54:27.360Z,100.00
2022-11-03T23:57:12.798Z,100.00
2022-11-03T23:59:39.477Z,100.00
